Terminal Aerodrome Forecast
Issued by NWS

Home | Current Version | Previous Version | Text Only | Print | Product List | Glossary On
Versions: 1 2 3 4 5 6 7 8 9 10 11 12 13 14 15 16 17 18 19 20 21 22 23 24 25 26 27
696
FTUS46 KMTR 061137
TAFSFO
TAF
KSFO 061137Z 0612/0718 VRB03KT P6SM SCT200
      TEMPO 0612/0616 5SM BR
     FM061800 06004KT P6SM SCT200
     FM062300 31008KT P6SM SCT200
     FM070300 29010KT P6SM FEW200
     FM070500 30005KT P6SM FEW200
     FM071000 VRB03KT 6SM BR SKC
     FM071700 06004KT 6SM HZ SKC=

USA.gov is the U.S. government's official web portal to all federal, state and local government web resources and services.